Time;durP1;ratioP1;P1;durP2;ratioP2;P2;SDS_P1;SDS_P2;PMS_P1;PMS_P2;Temp;Humidity;BMP_temperature;BMP_pressure;BME280_temperature;BME280_humidity;BME280_pressure;Samples;Min_cycle;Max_cycle;Signal;HPM_P1;HPM_P2
2022/05/04 00:01:19;;;;;;;9.55;2.45;;;9.40;89.50;;;;;;5009263;28;20050;-43
2022/05/04 00:03:45;;;;;;;15.80;2.83;;;9.50;89.40;;;;;;5013321;28;20054;-42
2022/05/04 00:06:12;;;;;;;12.55;2.35;;;9.40;89.60;;;;;;5012210;28;20056;-42
2022/05/04 00:08:39;;;;;;;9.32;2.13;;;9.40;89.60;;;;;;5013200;28;20050;-43
2022/05/04 00:11:05;;;;;;;10.38;2.65;;;9.40;89.60;;;;;;5007832;28;20049;-42
2022/05/04 00:13:32;;;;;;;14.00;2.45;;;9.40;89.60;;;;;;5012191;28;20062;-43
2022/05/04 00:16:01;;;;;;;13.05;2.80;;;9.40;89.50;;;;;;5012061;28;20046;-43
2022/05/04 00:18:28;;;;;;;16.85;2.55;;;9.40;89.50;;;;;;5012858;28;20502;-43
2022/05/04 00:20:54;;;;;;;14.45;2.60;;;9.40;89.80;;;;;;5010181;28;20045;-42
2022/05/04 00:23:21;;;;;;;14.40;2.60;;;9.30;89.80;;;;;;5002948;28;20470;-43
2022/05/04 00:25:48;;;;;;;18.60;2.65;;;9.30;89.80;;;;;;5011660;28;20421;-42
2022/05/04 00:28:14;;;;;;;13.73;2.70;;;9.30;90.00;;;;;;5011826;28;20060;-42
2022/05/04 00:30:41;;;;;;;12.35;2.53;;;9.30;90.40;;;;;;5011705;28;20133;-43
2022/05/04 00:33:09;;;;;;;12.77;2.50;;;9.40;90.10;;;;;;5011128;28;20049;-43
2022/05/04 00:35:36;;;;;;;10.25;2.58;;;9.40;90.30;;;;;;5004599;28;20050;-43
2022/05/04 00:38:03;;;;;;;13.95;3.33;;;9.40;90.10;;;;;;5002894;28;20055;-43
2022/05/04 00:40:29;;;;;;;13.18;2.85;;;9.40;90.00;;;;;;5008383;28;20092;-43
2022/05/04 00:42:56;;;;;;;10.48;2.88;;;9.40;89.90;;;;;;5011946;28;20418;-43
2022/05/04 00:45:23;;;;;;;11.80;2.80;;;9.40;90.00;;;;;;5007845;28;20054;-42
2022/05/04 00:47:49;;;;;;;13.63;2.80;;;9.30;90.00;;;;;;5011525;28;20049;-43
2022/05/04 00:50:17;;;;;;;11.52;2.75;;;9.30;90.10;;;;;;5010260;28;20053;-42
2022/05/04 00:52:45;;;;;;;18.25;3.50;;;9.30;90.20;;;;;;5006081;28;20069;-43
2022/05/04 00:55:12;;;;;;;14.60;3.13;;;9.30;90.20;;;;;;5010407;28;20050;-43
2022/05/04 01:00:24;;;;;;;8.80;2.63;;;9.20;90.20;;;;;;5011515;28;20053;-43
2022/05/04 01:02:50;;;;;;;11.70;2.83;;;9.30;90.30;;;;;;5011242;28;20129;-43
2022/05/04 01:05:18;;;;;;;12.18;3.00;;;9.20;90.30;;;;;;5006276;28;20057;-43
2022/05/04 01:07:46;;;;;;;11.85;2.90;;;9.30;90.20;;;;;;5003324;28;20060;-43
2022/05/04 01:10:14;;;;;;;14.20;2.65;;;9.30;90.20;;;;;;5011474;28;20056;-42
2022/05/04 01:12:46;;;;;;;12.32;2.35;;;9.30;90.20;;;;;;5009457;28;20056;-43
2022/05/04 01:15:18;;;;;;;13.00;3.40;;;9.40;90.10;;;;;;5010326;28;20045;-42
2022/05/04 01:17:45;;;;;;;14.45;3.00;;;9.30;90.10;;;;;;5009742;28;20153;-42
2022/05/04 01:20:12;;;;;;;11.02;2.50;;;9.30;90.10;;;;;;5008774;28;20128;-41
2022/05/04 01:22:40;;;;;;;9.73;2.70;;;9.40;90.20;;;;;;5010094;28;20057;-43
2022/05/04 01:25:07;;;;;;;14.57;3.20;;;9.30;90.20;;;;;;4998606;28;20501;-43
2022/05/04 01:27:34;;;;;;;14.98;3.72;;;9.40;90.20;;;;;;5005380;28;20054;-43
2022/05/04 01:30:01;;;;;;;8.18;2.70;;;9.30;90.20;;;;;;5009383;28;20056;-43
2022/05/04 01:32:27;;;;;;;11.13;2.92;;;9.30;90.30;;;;;;5011210;28;20477;-43
2022/05/04 01:34:54;;;;;;;11.43;2.42;;;9.30;90.40;;;;;;5010452;28;20053;-43
2022/05/04 01:37:21;;;;;;;12.70;2.75;;;9.30;90.30;;;;;;5010500;28;20049;-43
2022/05/04 01:39:49;;;;;;;13.27;2.75;;;9.30;90.40;;;;;;5010462;28;20394;-42
2022/05/04 01:42:16;;;;;;;9.50;2.40;;;9.30;90.40;;;;;;5009687;28;20132;-42
2022/05/04 01:44:43;;;;;;;10.35;2.78;;;9.30;90.40;;;;;;5010376;28;20046;-43
2022/05/04 01:47:10;;;;;;;10.88;2.45;;;9.30;90.40;;;;;;5010717;28;20053;-43
2022/05/04 01:49:37;;;;;;;14.70;2.75;;;9.30;90.30;;;;;;5011366;28;20088;-42
2022/05/04 01:52:04;;;;;;;11.57;2.67;;;9.20;90.30;;;;;;5014598;28;20077;-43
2022/05/04 01:54:31;;;;;;;8.20;2.40;;;9.20;90.40;;;;;;5015013;28;20050;-43
2022/05/04 01:56:59;;;;;;;9.55;3.10;;;9.20;90.40;;;;;;5014691;28;20054;-42
2022/05/04 01:59:26;;;;;;;11.55;3.00;;;9.20;90.40;;;;;;5013904;28;20405;-43
2022/05/04 02:01:52;;;;;;;9.02;3.08;;;9.20;90.50;;;;;;5014952;28;20052;-43
2022/05/04 02:04:19;;;;;;;9.32;2.67;;;9.20;90.50;;;;;;5015344;28;20060;-41
2022/05/04 02:06:46;;;;;;;13.93;3.05;;;9.20;90.50;;;;;;5014073;28;20491;-42
2022/05/04 02:09:12;;;;;;;10.40;2.33;;;9.10;90.50;;;;;;5014609;28;20092;-43
2022/05/04 02:11:39;;;;;;;10.23;2.80;;;9.30;90.40;;;;;;5015412;28;20397;-42
2022/05/04 02:14:07;;;;;;;19.25;3.05;;;9.20;90.40;;;;;;5015007;28;20070;-42
2022/05/04 02:16:34;;;;;;;9.68;2.60;;;9.20;90.40;;;;;;5008031;28;20297;-41
2022/05/04 02:19:00;;;;;;;10.65;2.83;;;9.10;90.30;;;;;;4997786;28;20046;-42
2022/05/04 02:21:27;;;;;;;8.30;2.38;;;9.10;90.40;;;;;;5009425;28;20062;-42
2022/05/04 02:23:54;;;;;;;13.57;2.80;;;9.10;90.30;;;;;;5011091;28;20128;-42
2022/05/04 02:26:20;;;;;;;10.77;3.22;;;9.10;90.40;;;;;;5006887;28;20056;-42
2022/05/04 02:28:47;;;;;;;11.82;3.42;;;9.10;90.40;;;;;;5013648;28;20057;-42
2022/05/04 02:31:15;;;;;;;12.77;3.03;;;9.10;90.40;;;;;;5014163;28;20547;-42
2022/05/04 02:33:44;;;;;;;20.10;3.67;;;9.10;90.40;;;;;;5008791;28;20056;-42
2022/05/04 02:38:55;;;;;;;15.85;3.00;;;9.00;90.50;;;;;;5012287;28;20061;-42
2022/05/04 02:41:22;;;;;;;16.00;3.28;;;9.00;90.60;;;;;;5010635;28;20060;-43
2022/05/04 02:43:48;;;;;;;13.38;3.20;;;9.00;90.60;;;;;;5014126;28;20050;-42
2022/05/04 02:46:17;;;;;;;9.20;2.63;;;8.90;90.70;;;;;;5013305;28;20057;-42
2022/05/04 02:48:44;;;;;;;11.35;2.92;;;8.90;90.60;;;;;;5013714;28;20054;-42
2022/05/04 02:51:10;;;;;;;14.43;2.95;;;8.90;90.60;;;;;;5013960;28;20050;-42
2022/05/04 02:53:37;;;;;;;10.05;2.65;;;8.90;90.70;;;;;;5013893;28;20046;-42
2022/05/04 02:56:05;;;;;;;9.32;2.40;;;8.90;90.60;;;;;;5013884;28;20116;-42
2022/05/04 02:58:31;;;;;;;13.38;3.05;;;8.90;90.60;;;;;;5011176;28;20053;-42
2022/05/04 03:02:26;;;;;;;10.82;2.90;;;8.90;90.60;;;;;;5011156;28;20056;-42
2022/05/04 03:03:58;;;;;;;11.65;2.67;;;8.90;90.60;;;;;;5009228;28;20045;-42
2022/05/04 03:06:25;;;;;;;10.65;3.30;;;8.90;90.80;;;;;;5013825;28;20189;-42
2022/05/04 03:08:51;;;;;;;11.70;2.75;;;8.80;90.80;;;;;;5003961;28;20049;-42
2022/05/04 03:14:03;;;;;;;9.25;2.42;;;8.80;91.00;;;;;;5011772;28;20049;-42
2022/05/04 03:16:29;;;;;;;13.18;2.88;;;8.80;90.80;;;;;;5013110;28;20115;-42
2022/05/04 03:18:56;;;;;;;13.27;2.95;;;8.80;90.80;;;;;;5013024;28;20056;-42
2022/05/04 03:21:24;;;;;;;9.55;2.58;;;8.80;90.70;;;;;;4998024;28;20054;-42
2022/05/04 03:23:51;;;;;;;14.93;2.67;;;8.80;90.80;;;;;;5013720;28;20405;-41
2022/05/04 03:26:18;;;;;;;18.52;3.00;;;8.90;90.80;;;;;;5007504;28;20053;-42
2022/05/04 03:28:45;;;;;;;15.63;3.10;;;8.80;90.80;;;;;;5012548;28;20124;-41
2022/05/04 03:31:12;;;;;;;12.10;3.03;;;8.80;90.80;;;;;;5010338;28;20062;-41
2022/05/04 03:33:38;;;;;;;8.50;2.63;;;8.80;90.80;;;;;;5012634;28;20402;-42
2022/05/04 03:36:06;;;;;;;15.05;2.85;;;8.80;90.80;;;;;;5012332;28;20046;-42
2022/05/04 03:38:34;;;;;;;9.40;2.70;;;8.80;90.80;;;;;;5009445;28;20100;-42
2022/05/04 03:41:01;;;;;;;9.07;2.85;;;8.80;90.70;;;;;;5013095;28;20064;-42
2022/05/04 03:43:28;;;;;;;12.27;2.72;;;8.80;90.70;;;;;;5012882;28;20475;-42
2022/05/04 03:45:54;;;;;;;9.57;2.22;;;8.80;90.70;;;;;;5012651;28;20054;-43
2022/05/04 03:48:21;;;;;;;13.50;3.42;;;8.80;90.70;;;;;;5012455;28;20061;-44
2022/05/04 03:50:48;;;;;;;11.13;2.83;;;8.80;91.10;;;;;;5012727;28;20052;-43
2022/05/04 03:53:14;;;;;;;9.30;2.45;;;8.80;90.80;;;;;;5010539;28;20483;-43
2022/05/04 03:55:42;;;;;;;12.13;2.92;;;8.80;90.70;;;;;;5006471;28;20062;-42
2022/05/04 03:58:09;;;;;;;11.60;2.65;;;8.80;90.80;;;;;;5011362;28;20478;-43
2022/05/04 04:00:36;;;;;;;9.48;2.55;;;8.80;91.00;;;;;;5004925;28;20080;-43
2022/05/04 04:03:02;;;;;;;12.50;2.60;;;8.80;91.00;;;;;;5008082;28;20049;-43
2022/05/04 04:05:29;;;;;;;9.68;2.50;;;8.80;91.20;;;;;;5011529;28;20042;-42
2022/05/04 04:07:56;;;;;;;12.25;3.30;;;8.70;91.30;;;;;;5012418;28;20054;-43
2022/05/04 04:10:23;;;;;;;9.45;2.40;;;8.70;91.40;;;;;;5009450;28;20623;-42
2022/05/04 04:12:51;;;;;;;12.07;2.70;;;8.80;91.40;;;;;;5007355;28;20057;-42
2022/05/04 04:15:18;;;;;;;10.82;2.72;;;8.80;91.40;;;;;;5008486;28;20050;-43
2022/05/04 04:17:44;;;;;;;10.43;2.53;;;8.70;91.30;;;;;;5011733;28;20042;-43
2022/05/04 04:22:58;;;;;;;13.25;2.85;;;8.80;91.30;;;;;;4979061;28;20062;-43
2022/05/04 04:25:24;;;;;;;16.85;3.63;;;8.70;91.20;;;;;;5003951;28;20056;-43
2022/05/04 04:27:52;;;;;;;8.07;2.85;;;8.70;91.20;;;;;;5010580;28;20505;-43
2022/05/04 04:30:19;;;;;;;12.57;2.75;;;8.80;91.10;;;;;;5011517;28;20050;-43
2022/05/04 04:32:46;;;;;;;16.02;3.88;;;8.80;91.20;;;;;;5011054;28;20671;-42
2022/05/04 04:35:12;;;;;;;18.13;3.47;;;8.80;91.20;;;;;;5011747;28;20050;-43
2022/05/04 04:37:39;;;;;;;13.60;3.05;;;8.80;91.10;;;;;;5011416;28;20052;-43
2022/05/04 04:40:07;;;;;;;11.55;3.10;;;8.80;91.20;;;;;;5010123;28;20478;-42
2022/05/04 04:42:34;;;;;;;12.55;3.15;;;8.80;91.20;;;;;;5012661;28;20422;-43
2022/05/04 04:45:02;;;;;;;14.10;3.30;;;8.80;91.30;;;;;;5012096;28;20128;-43
2022/05/04 04:47:30;;;;;;;12.63;3.20;;;8.80;91.30;;;;;;5010340;28;20046;-43
2022/05/04 04:49:57;;;;;;;19.38;3.45;;;8.80;91.30;;;;;;5011321;28;20096;-43
2022/05/04 04:52:24;;;;;;;15.88;3.83;;;8.80;91.40;;;;;;5012461;28;20447;-43
2022/05/04 04:54:51;;;;;;;12.63;4.18;;;8.80;91.30;;;;;;5003470;28;20054;-42
2022/05/04 04:57:18;;;;;;;18.40;3.90;;;8.90;91.30;;;;;;5012223;28;20054;-43
2022/05/04 04:59:44;;;;;;;13.18;3.03;;;8.90;91.30;;;;;;5004222;28;20048;-43
2022/05/04 05:02:12;;;;;;;14.07;3.83;;;8.80;91.30;;;;;;5010482;28;20124;-43
2022/05/04 05:04:39;;;;;;;12.10;3.03;;;8.90;91.20;;;;;;5011198;28;20045;-43
2022/05/04 05:07:06;;;;;;;11.93;3.60;;;8.90;91.20;;;;;;5008399;28;20454;-43
2022/05/04 05:09:32;;;;;;;13.55;3.83;;;8.90;91.20;;;;;;5007718;28;20053;-42
2022/05/04 05:11:59;;;;;;;16.77;3.83;;;8.90;91.20;;;;;;5009007;28;20053;-42
2022/05/04 05:17:11;;;;;;;13.73;3.97;;;9.00;91.40;;;;;;5004588;28;20085;-43
2022/05/04 05:19:38;;;;;;;16.00;3.58;;;9.00;91.30;;;;;;5012350;28;20050;-42
2022/05/04 05:22:05;;;;;;;10.80;3.15;;;9.00;91.40;;;;;;5011153;28;20138;-43
2022/05/04 05:24:32;;;;;;;14.00;4.20;;;9.00;91.30;;;;;;5008021;28;20056;-42
2022/05/04 05:26:58;;;;;;;12.88;4.10;;;9.00;91.40;;;;;;5014713;28;20057;-42
2022/05/04 05:29:25;;;;;;;20.25;3.70;;;9.00;91.50;;;;;;5009198;28;20049;-42
2022/05/04 05:31:52;;;;;;;13.75;3.33;;;9.00;91.60;;;;;;5003309;28;20410;-43
2022/05/04 05:34:20;;;;;;;9.38;3.50;;;9.00;91.50;;;;;;5012741;28;20042;-42
2022/05/04 05:36:47;;;;;;;14.52;3.63;;;9.10;91.60;;;;;;5015990;28;20052;-43
2022/05/04 05:39:13;;;;;;;11.18;3.45;;;9.10;91.70;;;;;;5013732;28;20050;-43
2022/05/04 05:41:40;;;;;;;12.75;3.50;;;9.10;92.00;;;;;;5016366;28;20064;-43
2022/05/04 05:44:07;;;;;;;17.98;3.75;;;9.10;92.00;;;;;;5015031;28;20041;-43
2022/05/04 05:46:33;;;;;;;12.93;3.42;;;9.20;91.80;;;;;;5015148;28;20049;-43
2022/05/04 05:49:00;;;;;;;13.30;2.90;;;9.20;91.70;;;;;;5013608;28;20383;-43
2022/05/04 05:51:28;;;;;;;16.42;3.53;;;9.20;91.50;;;;;;5007061;28;20064;-43
2022/05/04 05:53:55;;;;;;;17.52;3.47;;;9.20;91.40;;;;;;5013219;28;20050;-43
2022/05/04 05:56:21;;;;;;;11.73;2.78;;;9.30;91.30;;;;;;5012959;28;20046;-42
2022/05/04 05:58:48;;;;;;;15.73;3.08;;;9.30;90.90;;;;;;5014153;28;20056;-43
2022/05/04 06:01:15;;;;;;;11.45;2.50;;;9.30;90.60;;;;;;5014081;28;20409;-42
2022/05/04 06:03:41;;;;;;;7.28;3.17;;;9.40;90.60;;;;;;5010432;28;20054;-43
2022/05/04 06:06:08;;;;;;;14.75;2.60;;;9.40;90.30;;;;;;5015157;28;20060;-42
2022/05/04 06:08:37;;;;;;;14.20;3.28;;;9.40;90.00;;;;;;5014648;28;20103;-42
2022/05/04 06:11:04;;;;;;;13.65;3.22;;;9.40;89.80;;;;;;5015979;28;20512;-43
2022/05/04 06:13:30;;;;;;;10.50;2.30;;;9.50;89.60;;;;;;5013657;28;20141;-43
2022/05/04 06:15:57;;;;;;;12.07;2.38;;;9.60;89.60;;;;;;5014266;28;20053;-43
2022/05/04 06:18:24;;;;;;;12.20;2.63;;;9.60;89.20;;;;;;5014739;28;20058;-43
2022/05/04 06:20:50;;;;;;;13.88;2.63;;;9.70;88.70;;;;;;5014373;28;20406;-43
2022/05/04 06:23:17;;;;;;;11.45;2.55;;;9.70;88.40;;;;;;5012011;28;20046;-43
2022/05/04 06:25:45;;;;;;;10.13;2.45;;;9.80;87.90;;;;;;5011657;28;20046;-43
2022/05/04 06:28:12;;;;;;;11.63;2.75;;;9.90;87.50;;;;;;5012740;28;20529;-43
2022/05/04 06:36:07;;;;;;;9.52;2.45;;;10.20;87.40;;;;;;5013332;28;20049;-42
2022/05/04 06:38:34;;;;;;;8.98;2.78;;;10.30;86.40;;;;;;5007596;28;20046;-42
2022/05/04 06:41:05;;;;;;;13.88;2.75;;;10.50;86.10;;;;;;5014988;28;20064;-43
2022/05/04 06:43:32;;;;;;;14.00;2.60;;;10.60;85.90;;;;;;5009030;28;20447;-43
2022/05/04 06:45:58;;;;;;;15.93;2.80;;;10.70;85.00;;;;;;5012486;28;20057;-43
2022/05/04 06:48:25;;;;;;;7.63;2.28;;;10.80;84.10;;;;;;5013718;28;20409;-42
2022/05/04 06:50:52;;;;;;;11.88;2.40;;;10.80;83.80;;;;;;5013600;28;20076;-42
2022/05/04 06:53:18;;;;;;;10.48;2.17;;;10.80;83.80;;;;;;5012353;28;20052;-42
2022/05/04 06:55:45;;;;;;;8.73;2.08;;;10.80;83.70;;;;;;5012190;28;20052;-42
2022/05/04 06:58:13;;;;;;;10.38;2.47;;;10.70;83.50;;;;;;5014082;28;20060;-42
2022/05/04 07:00:40;;;;;;;10.88;2.15;;;10.70;83.70;;;;;;5013286;28;20050;-43
2022/05/04 07:03:07;;;;;;;9.30;2.20;;;10.70;83.70;;;;;;5012555;28;20069;-43
2022/05/04 07:05:33;;;;;;;9.35;2.45;;;10.70;83.60;;;;;;5011829;28;20064;-42
2022/05/04 07:08:00;;;;;;;11.23;2.42;;;10.70;83.70;;;;;;5012544;28;20060;-43
2022/05/04 07:10:27;;;;;;;14.00;3.30;;;10.80;83.50;;;;;;5013852;28;20483;-43
2022/05/04 07:12:54;;;;;;;12.45;2.40;;;10.80;83.30;;;;;;5014333;28;20049;-42
2022/05/04 07:15:22;;;;;;;11.77;2.90;;;10.80;83.10;;;;;;5009632;28;20391;-43
2022/05/04 07:17:48;;;;;;;14.10;3.00;;;11.00;82.90;;;;;;5006694;28;20043;-43
2022/05/04 07:20:15;;;;;;;15.55;2.45;;;11.10;82.10;;;;;;5005315;28;20068;-42
2022/05/04 07:22:42;;;;;;;13.70;2.78;;;11.30;80.90;;;;;;5008952;28;20064;-43
2022/05/04 07:25:09;;;;;;;12.50;2.60;;;11.30;80.30;;;;;;5013323;28;20050;-43
2022/05/04 07:27:35;;;;;;;8.40;2.30;;;11.40;80.90;;;;;;5011831;28;20069;-43
2022/05/04 07:30:02;;;;;;;16.30;2.70;;;11.60;80.60;;;;;;5012237;28;20050;-43
2022/05/04 07:32:30;;;;;;;11.88;2.38;;;11.70;80.00;;;;;;5013972;28;20058;-41
2022/05/04 07:34:57;;;;;;;15.57;3.08;;;11.70;79.10;;;;;;5013109;28;20402;-42
2022/05/04 07:37:24;;;;;;;16.63;3.00;;;11.80;79.60;;;;;;5010242;28;20053;-42
2022/05/04 07:42:35;;;;;;;13.93;2.65;;;11.90;78.80;;;;;;5013122;28;20042;-43
2022/05/04 07:45:03;;;;;;;8.93;2.35;;;11.90;78.80;;;;;;5011882;28;20052;-43
2022/05/04 07:47:32;;;;;;;12.82;2.33;;;11.90;78.80;;;;;;5011626;28;20490;-43
2022/05/04 07:49:58;;;;;;;14.27;2.58;;;11.80;79.60;;;;;;5013173;28;20052;-42
2022/05/04 07:52:25;;;;;;;13.15;2.63;;;11.80;79.90;;;;;;5012420;28;20052;-43
2022/05/04 07:54:52;;;;;;;9.23;2.47;;;11.80;79.60;;;;;;5012744;28;20509;-43
2022/05/04 07:57:19;;;;;;;11.80;2.50;;;11.90;79.70;;;;;;5012855;28;20064;-42
2022/05/04 08:04:16;;;;;;;10.38;2.83;;;12.10;79.40;;;;;;5012532;28;20067;-42
2022/05/04 08:05:18;;;;;;;11.13;2.20;;;12.60;79.00;;;;;;5012801;28;20498;-42
2022/05/04 08:07:45;;;;;;;9.57;2.50;;;12.80;78.30;;;;;;5008121;28;20050;-43
2022/05/04 08:10:13;;;;;;;11.70;2.47;;;12.90;77.70;;;;;;5011618;28;20049;-43
2022/05/04 08:12:39;;;;;;;9.07;2.20;;;13.00;77.30;;;;;;5010941;28;20069;-43
2022/05/04 08:15:07;;;;;;;14.23;2.80;;;13.10;77.00;;;;;;5011728;28;20508;-42
2022/05/04 08:17:35;;;;;;;10.48;2.65;;;13.10;75.50;;;;;;5007401;28;20481;-43
2022/05/04 08:20:02;;;;;;;9.27;2.47;;;13.10;75.60;;;;;;5012047;28;20054;-43
2022/05/04 08:22:28;;;;;;;12.43;2.78;;;13.10;75.20;;;;;;5012540;28;20140;-44
2022/05/04 08:24:55;;;;;;;11.63;2.55;;;13.20;75.80;;;;;;5011027;28;20042;-43
2022/05/04 08:27:22;;;;;;;12.35;2.38;;;13.40;75.40;;;;;;5009593;28;20697;-44
2022/05/04 08:29:48;;;;;;;12.50;3.15;;;13.60;74.90;;;;;;5011680;28;20052;-43
2022/05/04 08:32:15;;;;;;;11.55;2.40;;;13.80;74.70;;;;;;5003407;28;20060;-42
2022/05/04 08:34:43;;;;;;;9.45;2.78;;;14.00;74.60;;;;;;5012247;28;20104;-42
2022/05/04 08:37:10;;;;;;;12.25;2.88;;;14.10;74.20;;;;;;5008275;28;20565;-42
2022/05/04 08:39:37;;;;;;;12.25;2.47;;;14.20;74.80;;;;;;5006348;28;20129;-42
2022/05/04 08:42:04;;;;;;;10.90;2.45;;;14.30;74.00;;;;;;4990208;28;20134;-42
2022/05/04 08:44:31;;;;;;;9.27;2.80;;;14.20;72.70;;;;;;4988149;28;20471;-43
2022/05/04 08:46:59;;;;;;;12.57;2.65;;;14.10;72.80;;;;;;4993029;28;20218;-42
2022/05/04 08:49:25;;;;;;;11.73;2.78;;;14.10;72.30;;;;;;4992087;28;20043;-43
2022/05/04 08:51:53;;;;;;;10.15;2.47;;;14.20;72.60;;;;;;4975347;28;20054;-43
2022/05/04 08:54:20;;;;;;;13.38;3.40;;;14.40;72.10;;;;;;4989985;28;20046;-43
2022/05/04 08:56:47;;;;;;;9.98;2.85;;;14.60;71.10;;;;;;4991639;28;20085;-43
2022/05/04 08:59:13;;;;;;;11.43;2.90;;;14.80;71.70;;;;;;4967915;28;20050;-43
2022/05/04 09:01:40;;;;;;;8.77;2.53;;;15.10;70.00;;;;;;4989068;28;20391;-44
2022/05/04 09:04:07;;;;;;;10.82;2.60;;;15.20;70.00;;;;;;4992325;28;20055;-42
2022/05/04 09:06:36;;;;;;;14.00;2.72;;;15.30;69.50;;;;;;4992328;28;20069;-43
2022/05/04 09:09:08;;;;;;;11.02;2.38;;;15.40;69.10;;;;;;4991429;28;20166;-43
2022/05/04 09:11:37;;;;;;;10.23;2.50;;;15.40;69.60;;;;;;4990006;28;20053;-43
2022/05/04 09:14:07;;;;;;;12.30;2.80;;;15.50;67.70;;;;;;4972550;28;20058;-43
2022/05/04 09:16:34;;;;;;;10.10;2.15;;;15.50;66.30;;;;;;4974723;28;20096;-42
2022/05/04 09:19:02;;;;;;;10.95;2.40;;;15.30;67.10;;;;;;4975473;28;20050;-42
2022/05/04 09:21:28;;;;;;;10.52;2.30;;;15.40;68.50;;;;;;4984589;28;20071;-42
2022/05/04 09:23:55;;;;;;;10.80;2.33;;;15.60;68.80;;;;;;4992020;28;20047;-42
2022/05/04 09:26:23;;;;;;;10.57;2.45;;;15.80;67.50;;;;;;4992075;28;20050;-43
2022/05/04 09:28:51;;;;;;;8.55;2.28;;;16.00;66.50;;;;;;4992429;28;20464;-43
2022/05/04 09:31:18;;;;;;;10.20;2.40;;;16.00;65.70;;;;;;4985456;28;20051;-42
2022/05/04 09:33:46;;;;;;;13.52;2.67;;;16.10;65.00;;;;;;4990683;28;20061;-43
2022/05/04 09:36:13;;;;;;;9.27;2.42;;;16.20;64.30;;;;;;4994032;28;20064;-43
2022/05/04 09:46:54;;;;;;;12.48;2.95;;;16.80;64.90;;;;;;5009628;28;20046;-43
2022/05/04 09:49:22;;;;;;;13.00;2.83;;;16.90;65.40;;;;;;5008978;28;20056;-43
2022/05/04 09:51:52;;;;;;;15.10;2.97;;;17.20;64.50;;;;;;5011906;28;20398;-43
2022/05/04 09:54:20;;;;;;;11.57;2.63;;;17.30;63.90;;;;;;5008726;28;20486;-43
2022/05/04 09:56:49;;;;;;;11.77;3.05;;;17.30;63.70;;;;;;5004325;28;20089;-43
2022/05/04 09:59:17;;;;;;;9.35;2.38;;;17.50;63.90;;;;;;5006875;28;20542;-43
2022/05/04 10:01:44;;;;;;;8.23;2.65;;;17.60;62.00;;;;;;5011108;28;20410;-43
2022/05/04 10:04:11;;;;;;;11.05;2.67;;;17.50;61.90;;;;;;5006920;28;20050;-42
2022/05/04 10:06:38;;;;;;;11.35;2.47;;;17.30;61.80;;;;;;5007839;28;20050;-43
2022/05/04 10:09:04;;;;;;;12.10;3.33;;;17.40;61.90;;;;;;5006475;28;20140;-42
2022/05/04 10:11:32;;;;;;;10.88;2.65;;;17.40;61.90;;;;;;5013779;28;20408;-43
2022/05/04 10:14:02;;;;;;;9.50;2.50;;;17.70;61.80;;;;;;5014388;28;20509;-43
2022/05/04 10:16:29;;;;;;;7.38;2.70;;;17.80;60.30;;;;;;5007294;28;20045;-43
2022/05/04 10:18:55;;;;;;;14.32;3.38;;;17.70;59.50;;;;;;5015465;28;20050;-43
2022/05/04 10:21:24;;;;;;;10.23;3.15;;;17.60;60.00;;;;;;5015186;28;20052;-43
2022/05/04 10:23:54;;;;;;;9.57;2.38;;;17.70;60.80;;;;;;5013741;28;20054;-43
2022/05/04 10:26:31;;;;;;;8.93;2.38;;;17.80;60.20;;;;;;5015078;28;20042;-43
2022/05/04 10:31:52;;;;;;;11.80;2.90;;;18.00;60.40;;;;;;5007736;28;20490;-43
2022/05/04 10:34:19;;;;;;;10.85;2.30;;;18.10;59.20;;;;;;5014874;28;20042;-43
2022/05/04 10:36:46;;;;;;;9.80;2.60;;;18.00;57.60;;;;;;5014049;28;20128;-42
2022/05/04 10:39:19;;;;;;;11.73;2.67;;;18.00;58.40;;;;;;5014663;28;20049;-43
2022/05/04 10:41:46;;;;;;;8.80;2.40;;;18.10;59.40;;;;;;5014720;28;20042;-43
2022/05/04 10:44:14;;;;;;;9.50;2.35;;;18.10;58.90;;;;;;5015093;28;20050;-43
2022/05/04 10:46:41;;;;;;;11.02;2.47;;;18.00;57.70;;;;;;5014323;28;20050;-43
2022/05/04 10:49:11;;;;;;;10.63;2.40;;;18.00;57.50;;;;;;5014852;28;20054;-43
2022/05/04 10:51:39;;;;;;;9.52;2.38;;;18.00;57.90;;;;;;5014334;28;20053;-42
2022/05/04 10:54:07;;;;;;;9.93;2.47;;;18.10;56.90;;;;;;5014478;28;20046;-43
2022/05/04 10:56:36;;;;;;;10.32;2.60;;;18.00;57.80;;;;;;5014631;28;20401;-42
2022/05/04 10:59:03;;;;;;;9.90;2.40;;;17.90;57.20;;;;;;5014687;28;20042;-43
2022/05/04 11:01:32;;;;;;;9.05;2.10;;;18.00;57.80;;;;;;5014023;28;20054;-43
2022/05/04 11:04:06;;;;;;;10.80;2.65;;;18.10;58.10;;;;;;5014268;28;20054;-43
2022/05/04 11:06:34;;;;;;;8.48;2.30;;;18.30;58.80;;;;;;5014248;28;20056;-43
2022/05/04 11:09:05;;;;;;;11.27;2.75;;;18.40;59.00;;;;;;5014007;28;20050;-41
2022/05/04 11:11:32;;;;;;;10.48;3.15;;;18.50;57.10;;;;;;5013139;28;20057;-42
2022/05/04 11:13:59;;;;;;;8.40;2.22;;;18.60;57.00;;;;;;5012685;28;20056;-42
2022/05/04 11:16:26;;;;;;;12.00;2.60;;;18.60;56.90;;;;;;5010566;28;20486;-42
2022/05/04 11:18:54;;;;;;;10.77;2.75;;;18.60;57.60;;;;;;5010578;28;20128;-43
2022/05/04 11:21:21;;;;;;;10.57;2.63;;;18.70;57.20;;;;;;5013674;28;20053;-42
2022/05/04 11:23:48;;;;;;;12.18;2.70;;;18.90;58.60;;;;;;5007864;28;20046;-42
2022/05/04 11:26:19;;;;;;;9.50;2.78;;;18.90;56.60;;;;;;5009152;28;20046;-42
2022/05/04 11:28:46;;;;;;;10.38;2.90;;;18.90;57.00;;;;;;5012667;28;20073;-42
2022/05/04 11:31:13;;;;;;;9.35;2.72;;;18.90;56.40;;;;;;4995292;28;20060;-42
2022/05/04 11:33:41;;;;;;;8.25;2.33;;;18.90;56.30;;;;;;5013816;28;20049;-42
2022/05/04 11:36:10;;;;;;;7.78;2.38;;;19.00;55.90;;;;;;5013422;28;20045;-43
2022/05/04 11:38:36;;;;;;;6.28;1.85;;;19.10;56.10;;;;;;5012837;28;20061;-43
2022/05/04 11:41:03;;;;;;;9.27;2.33;;;19.20;58.10;;;;;;5009390;28;20065;-43
2022/05/04 11:43:33;;;;;;;8.60;2.25;;;19.30;56.50;;;;;;5013005;28;20145;-43
2022/05/04 11:46:03;;;;;;;9.90;2.70;;;19.40;55.60;;;;;;5012692;28;20050;-43
2022/05/04 11:48:30;;;;;;;8.10;2.30;;;19.40;54.20;;;;;;5013323;28;20498;-43
2022/05/04 11:50:57;;;;;;;8.35;2.67;;;19.50;55.90;;;;;;5013558;28;20402;-43
2022/05/04 11:53:25;;;;;;;12.10;2.63;;;19.70;56.20;;;;;;5010460;28;20056;-43
2022/05/04 11:55:52;;;;;;;9.05;2.72;;;19.80;54.80;;;;;;5013566;28;20046;-43
2022/05/04 11:58:19;;;;;;;8.68;2.10;;;20.10;55.70;;;;;;5004105;28;20057;-43
2022/05/04 12:00:45;;;;;;;9.93;2.75;;;20.20;54.40;;;;;;5013583;28;20100;-43
2022/05/04 12:03:12;;;;;;;12.25;2.97;;;20.20;53.40;;;;;;5013357;28;20049;-43
2022/05/04 12:05:39;;;;;;;10.15;2.63;;;20.20;52.50;;;;;;5011047;28;20073;-42
2022/05/04 12:08:06;;;;;;;7.85;2.13;;;20.20;53.60;;;;;;5013274;28;20486;-42
2022/05/04 12:10:34;;;;;;;11.52;2.70;;;20.10;54.60;;;;;;5005856;28;20064;-43
2022/05/04 12:13:01;;;;;;;7.88;2.63;;;20.00;54.50;;;;;;5013355;28;20054;-43
2022/05/04 12:15:28;;;;;;;8.65;2.30;;;20.00;54.60;;;;;;5013061;28;20112;-42
2022/05/04 12:17:59;;;;;;;8.30;2.20;;;20.00;55.70;;;;;;5011824;28;20053;-42
2022/05/04 12:20:25;;;;;;;9.13;2.13;;;20.20;56.10;;;;;;5012668;28;20061;-43
2022/05/04 12:22:53;;;;;;;10.85;2.88;;;20.20;56.30;;;;;;5012071;28;20081;-42
2022/05/04 12:25:19;;;;;;;7.55;2.63;;;20.30;54.20;;;;;;5013029;28;20465;-42
2022/05/04 12:27:47;;;;;;;9.88;2.72;;;20.20;54.60;;;;;;5012129;28;20064;-42
2022/05/04 12:33:11;;;;;;;8.10;2.72;;;20.40;53.30;;;;;;5012691;28;20046;-42
2022/05/04 12:35:39;;;;;;;7.15;2.60;;;20.40;51.70;;;;;;5011874;28;20494;-43
2022/05/04 12:38:06;;;;;;;7.57;2.50;;;20.20;52.20;;;;;;5012887;28;20060;-42
2022/05/04 12:40:33;;;;;;;9.30;2.55;;;20.30;52.80;;;;;;4996355;28;20050;-43
2022/05/04 12:43:01;;;;;;;6.18;2.08;;;20.40;52.00;;;;;;5012048;28;20049;-43
2022/05/04 12:45:28;;;;;;;11.32;2.65;;;20.50;53.10;;;;;;5010787;28;20046;-42
2022/05/04 12:47:58;;;;;;;10.40;2.30;;;20.80;52.20;;;;;;5012739;28;20406;-43
2022/05/04 12:50:26;;;;;;;11.43;3.28;;;21.00;52.00;;;;;;5003841;28;20050;-43
2022/05/04 12:52:52;;;;;;;9.43;2.47;;;21.10;51.50;;;;;;5012421;28;20053;-43
2022/05/04 12:55:19;;;;;;;10.95;2.83;;;21.00;51.80;;;;;;5008422;28;20501;-43
2022/05/04 12:57:45;;;;;;;6.75;2.10;;;21.10;51.40;;;;;;5008079;28;20052;-43
2022/05/04 13:00:14;;;;;;;8.10;2.47;;;21.20;52.30;;;;;;5012270;28;20046;-43
2022/05/04 13:02:42;;;;;;;6.53;2.08;;;21.20;52.50;;;;;;5012708;28;20483;-43
2022/05/04 13:05:09;;;;;;;10.52;2.88;;;21.30;52.90;;;;;;5012255;28;20065;-43
2022/05/04 13:07:36;;;;;;;9.25;2.53;;;21.40;50.90;;;;;;5008327;28;20042;-43
2022/05/04 13:10:02;;;;;;;11.38;2.67;;;21.50;52.00;;;;;;5010048;28;20078;-43
2022/05/04 13:12:29;;;;;;;9.05;2.60;;;21.50;50.90;;;;;;5011961;28;20038;-42
2022/05/04 13:14:58;;;;;;;10.45;2.80;;;21.50;50.50;;;;;;5011864;28;20045;-42
2022/05/04 13:17:27;;;;;;;8.15;2.83;;;21.50;50.70;;;;;;5010177;28;20145;-43
2022/05/04 13:19:54;;;;;;;9.57;2.90;;;21.60;48.80;;;;;;5012419;28;20455;-44
2022/05/04 13:22:22;;;;;;;7.13;2.20;;;21.40;48.40;;;;;;5012081;28;20049;-44
2022/05/04 13:24:49;;;;;;;7.35;2.35;;;21.30;48.30;;;;;;5004679;28;20461;-43